sensor_id;sensor_type;location;lat;lon;timestamp;P1;durP1;ratioP1;P2;durP2;ratioP2
67715;SDS011;54508;43.238;25.306;2023-12-20T00:01:47;7.73;;;5.40;;
67715;SDS011;54508;43.238;25.306;2023-12-20T00:04:13;6.25;;;5.10;;
67715;SDS011;54508;43.238;25.306;2023-12-20T00:06:38;8.67;;;5.00;;
67715;SDS011;54508;43.238;25.306;2023-12-20T00:09:03;5.80;;;4.93;;
67715;SDS011;54508;43.238;25.306;2023-12-20T00:11:29;6.73;;;4.77;;
67715;SDS011;54508;43.238;25.306;2023-12-20T00:13:54;10.57;;;5.70;;
67715;SDS011;54508;43.238;25.306;2023-12-20T00:16:20;7.10;;;5.30;;
67715;SDS011;54508;43.238;25.306;2023-12-20T00:18:45;7.63;;;5.50;;
67715;SDS011;54508;43.238;25.306;2023-12-20T00:21:11;7.17;;;5.37;;
67715;SDS011;54508;43.238;25.306;2023-12-20T00:23:36;7.43;;;5.80;;
67715;SDS011;54508;43.238;25.306;2023-12-20T00:26:02;6.63;;;4.80;;
67715;SDS011;54508;43.238;25.306;2023-12-20T00:28:27;6.77;;;5.20;;
67715;SDS011;54508;43.238;25.306;2023-12-20T00:30:53;6.67;;;4.90;;
67715;SDS011;54508;43.238;25.306;2023-12-20T00:33:18;7.13;;;5.05;;
67715;SDS011;54508;43.238;25.306;2023-12-20T00:35:44;6.03;;;4.67;;
67715;SDS011;54508;43.238;25.306;2023-12-20T00:38:09;7.40;;;5.07;;
67715;SDS011;54508;43.238;25.306;2023-12-20T00:40:36;6.68;;;5.22;;
67715;SDS011;54508;43.238;25.306;2023-12-20T00:43:01;8.65;;;5.57;;
67715;SDS011;54508;43.238;25.306;2023-12-20T00:45:27;6.95;;;5.30;;
67715;SDS011;54508;43.238;25.306;2023-12-20T00:47:52;5.60;;;5.00;;
67715;SDS011;54508;43.238;25.306;2023-12-20T00:50:18;6.30;;;4.90;;
67715;SDS011;54508;43.238;25.306;2023-12-20T00:52:43;6.78;;;5.60;;
67715;SDS011;54508;43.238;25.306;2023-12-20T00:55:09;5.73;;;4.73;;
67715;SDS011;54508;43.238;25.306;2023-12-20T00:57:34;5.93;;;4.80;;
67715;SDS011;54508;43.238;25.306;2023-12-20T01:00:00;6.43;;;5.07;;
67715;SDS011;54508;43.238;25.306;2023-12-20T01:02:26;6.80;;;5.33;;
67715;SDS011;54508;43.238;25.306;2023-12-20T01:04:51;6.72;;;5.72;;
67715;SDS011;54508;43.238;25.306;2023-12-20T01:07:16;7.20;;;5.03;;
67715;SDS011;54508;43.238;25.306;2023-12-20T01:09:42;6.17;;;4.97;;
67715;SDS011;54508;43.238;25.306;2023-12-20T01:12:07;6.53;;;5.00;;
67715;SDS011;54508;43.238;25.306;2023-12-20T01:14:33;7.53;;;5.40;;
67715;SDS011;54508;43.238;25.306;2023-12-20T01:16:59;6.40;;;4.93;;
67715;SDS011;54508;43.238;25.306;2023-12-20T01:19:24;7.73;;;5.70;;
67715;SDS011;54508;43.238;25.306;2023-12-20T01:21:50;5.90;;;5.00;;
67715;SDS011;54508;43.238;25.306;2023-12-20T01:24:15;6.47;;;5.03;;
67715;SDS011;54508;43.238;25.306;2023-12-20T01:26:41;6.13;;;5.40;;
67715;SDS011;54508;43.238;25.306;2023-12-20T01:29:06;5.68;;;5.07;;
67715;SDS011;54508;43.238;25.306;2023-12-20T01:31:32;8.60;;;5.60;;
67715;SDS011;54508;43.238;25.306;2023-12-20T01:33:57;7.60;;;5.63;;
67715;SDS011;54508;43.238;25.306;2023-12-20T01:36:23;8.20;;;5.60;;
67715;SDS011;54508;43.238;25.306;2023-12-20T01:38:48;5.90;;;5.18;;
67715;SDS011;54508;43.238;25.306;2023-12-20T01:41:14;7.07;;;5.40;;
67715;SDS011;54508;43.238;25.306;2023-12-20T01:43:40;6.57;;;5.43;;
67715;SDS011;54508;43.238;25.306;2023-12-20T01:46:05;6.00;;;5.23;;
67715;SDS011;54508;43.238;25.306;2023-12-20T01:48:31;6.30;;;5.17;;
67715;SDS011;54508;43.238;25.306;2023-12-20T01:50:57;6.60;;;5.30;;
67715;SDS011;54508;43.238;25.306;2023-12-20T01:53:24;6.70;;;5.32;;
67715;SDS011;54508;43.238;25.306;2023-12-20T01:55:50;6.55;;;5.45;;
67715;SDS011;54508;43.238;25.306;2023-12-20T01:58:17;7.00;;;5.20;;
67715;SDS011;54508;43.238;25.306;2023-12-20T02:00:43;6.38;;;5.25;;
67715;SDS011;54508;43.238;25.306;2023-12-20T02:03:09;6.60;;;5.20;;
67715;SDS011;54508;43.238;25.306;2023-12-20T02:05:35;6.00;;;5.30;;
67715;SDS011;54508;43.238;25.306;2023-12-20T02:08:02;6.93;;;5.53;;
67715;SDS011;54508;43.238;25.306;2023-12-20T02:10:27;7.77;;;6.10;;
67715;SDS011;54508;43.238;25.306;2023-12-20T02:12:53;8.17;;;6.03;;
67715;SDS011;54508;43.238;25.306;2023-12-20T02:15:18;7.53;;;6.03;;
67715;SDS011;54508;43.238;25.306;2023-12-20T02:17:44;6.05;;;5.20;;
67715;SDS011;54508;43.238;25.306;2023-12-20T02:20:10;7.60;;;5.35;;
67715;SDS011;54508;43.238;25.306;2023-12-20T02:22:36;6.63;;;5.77;;
67715;SDS011;54508;43.238;25.306;2023-12-20T02:25:01;6.90;;;5.77;;
67715;SDS011;54508;43.238;25.306;2023-12-20T02:27:27;6.93;;;5.68;;
67715;SDS011;54508;43.238;25.306;2023-12-20T02:29:53;5.93;;;5.03;;
67715;SDS011;54508;43.238;25.306;2023-12-20T02:32:18;7.55;;;5.20;;
67715;SDS011;54508;43.238;25.306;2023-12-20T02:34:45;5.97;;;5.35;;
67715;SDS011;54508;43.238;25.306;2023-12-20T02:37:11;7.63;;;5.10;;
67715;SDS011;54508;43.238;25.306;2023-12-20T02:39:37;7.03;;;5.40;;
67715;SDS011;54508;43.238;25.306;2023-12-20T02:42:02;6.35;;;5.00;;
67715;SDS011;54508;43.238;25.306;2023-12-20T02:44:28;6.90;;;5.40;;
67715;SDS011;54508;43.238;25.306;2023-12-20T02:46:54;6.67;;;5.70;;
67715;SDS011;54508;43.238;25.306;2023-12-20T02:49:19;7.28;;;5.47;;
67715;SDS011;54508;43.238;25.306;2023-12-20T02:51:45;5.43;;;4.90;;
67715;SDS011;54508;43.238;25.306;2023-12-20T02:54:11;7.28;;;5.40;;
67715;SDS011;54508;43.238;25.306;2023-12-20T02:56:37;6.00;;;5.40;;
67715;SDS011;54508;43.238;25.306;2023-12-20T02:59:02;6.23;;;5.47;;
67715;SDS011;54508;43.238;25.306;2023-12-20T03:01:30;6.00;;;5.40;;
67715;SDS011;54508;43.238;25.306;2023-12-20T03:03:56;7.10;;;5.23;;
67715;SDS011;54508;43.238;25.306;2023-12-20T03:06:21;6.78;;;5.45;;
67715;SDS011;54508;43.238;25.306;2023-12-20T03:08:47;6.25;;;5.30;;
67715;SDS011;54508;43.238;25.306;2023-12-20T03:11:12;6.80;;;5.23;;
67715;SDS011;54508;43.238;25.306;2023-12-20T03:13:38;7.50;;;5.00;;
67715;SDS011;54508;43.238;25.306;2023-12-20T03:16:09;6.63;;;5.80;;
67715;SDS011;54508;43.238;25.306;2023-12-20T03:18:35;6.20;;;5.43;;
67715;SDS011;54508;43.238;25.306;2023-12-20T03:21:01;6.57;;;5.57;;
67715;SDS011;54508;43.238;25.306;2023-12-20T03:23:26;6.67;;;4.70;;
67715;SDS011;54508;43.238;25.306;2023-12-20T03:25:52;7.43;;;5.60;;
67715;SDS011;54508;43.238;25.306;2023-12-20T03:28:18;7.03;;;5.80;;
67715;SDS011;54508;43.238;25.306;2023-12-20T03:30:44;7.70;;;5.03;;
67715;SDS011;54508;43.238;25.306;2023-12-20T03:33:10;7.30;;;5.32;;
67715;SDS011;54508;43.238;25.306;2023-12-20T03:35:35;6.70;;;5.70;;
67715;SDS011;54508;43.238;25.306;2023-12-20T03:38:01;6.38;;;5.78;;
67715;SDS011;54508;43.238;25.306;2023-12-20T03:40:26;7.83;;;5.83;;
67715;SDS011;54508;43.238;25.306;2023-12-20T03:42:52;7.07;;;5.57;;
67715;SDS011;54508;43.238;25.306;2023-12-20T03:45:17;6.03;;;5.30;;
67715;SDS011;54508;43.238;25.306;2023-12-20T03:47:43;8.40;;;5.65;;
67715;SDS011;54508;43.238;25.306;2023-12-20T03:50:08;6.63;;;5.75;;
67715;SDS011;54508;43.238;25.306;2023-12-20T03:52:34;7.63;;;5.43;;
67715;SDS011;54508;43.238;25.306;2023-12-20T03:54:59;6.53;;;5.30;;
67715;SDS011;54508;43.238;25.306;2023-12-20T03:57:24;5.97;;;5.37;;
67715;SDS011;54508;43.238;25.306;2023-12-20T03:59:50;9.05;;;5.70;;
67715;SDS011;54508;43.238;25.306;2023-12-20T04:02:15;7.03;;;5.40;;
67715;SDS011;54508;43.238;25.306;2023-12-20T04:04:43;7.25;;;5.80;;
67715;SDS011;54508;43.238;25.306;2023-12-20T04:07:08;6.50;;;5.70;;
67715;SDS011;54508;43.238;25.306;2023-12-20T04:09:34;6.60;;;5.33;;
67715;SDS011;54508;43.238;25.306;2023-12-20T04:11:59;6.17;;;5.57;;
67715;SDS011;54508;43.238;25.306;2023-12-20T04:14:24;7.35;;;5.88;;
67715;SDS011;54508;43.238;25.306;2023-12-20T04:16:50;7.13;;;5.50;;
67715;SDS011;54508;43.238;25.306;2023-12-20T04:19:15;7.20;;;5.73;;
67715;SDS011;54508;43.238;25.306;2023-12-20T04:21:41;7.23;;;6.10;;
67715;SDS011;54508;43.238;25.306;2023-12-20T04:24:06;7.33;;;6.53;;
67715;SDS011;54508;43.238;25.306;2023-12-20T04:26:32;7.00;;;5.97;;
67715;SDS011;54508;43.238;25.306;2023-12-20T04:28:57;6.93;;;5.73;;
67715;SDS011;54508;43.238;25.306;2023-12-20T04:31:23;6.90;;;6.13;;
67715;SDS011;54508;43.238;25.306;2023-12-20T04:33:48;6.82;;;6.13;;
67715;SDS011;54508;43.238;25.306;2023-12-20T04:36:14;7.30;;;6.20;;
67715;SDS011;54508;43.238;25.306;2023-12-20T04:38:39;7.60;;;6.43;;
67715;SDS011;54508;43.238;25.306;2023-12-20T04:41:05;9.30;;;5.80;;
67715;SDS011;54508;43.238;25.306;2023-12-20T04:43:30;6.78;;;5.95;;
67715;SDS011;54508;43.238;25.306;2023-12-20T04:45:56;7.67;;;6.00;;
67715;SDS011;54508;43.238;25.306;2023-12-20T04:48:21;7.30;;;6.20;;
67715;SDS011;54508;43.238;25.306;2023-12-20T04:50:47;8.43;;;6.32;;
67715;SDS011;54508;43.238;25.306;2023-12-20T04:53:12;7.87;;;6.87;;
67715;SDS011;54508;43.238;25.306;2023-12-20T04:55:38;6.83;;;6.13;;
67715;SDS011;54508;43.238;25.306;2023-12-20T04:58:04;8.55;;;6.40;;
67715;SDS011;54508;43.238;25.306;2023-12-20T05:00:29;8.40;;;6.57;;
67715;SDS011;54508;43.238;25.306;2023-12-20T05:02:55;8.15;;;6.90;;
67715;SDS011;54508;43.238;25.306;2023-12-20T05:05:20;8.47;;;6.83;;
67715;SDS011;54508;43.238;25.306;2023-12-20T05:07:46;7.30;;;6.60;;
67715;SDS011;54508;43.238;25.306;2023-12-20T05:10:11;7.60;;;6.80;;
67715;SDS011;54508;43.238;25.306;2023-12-20T05:12:37;7.72;;;6.70;;
67715;SDS011;54508;43.238;25.306;2023-12-20T05:15:03;7.40;;;6.70;;
67715;SDS011;54508;43.238;25.306;2023-12-20T05:17:30;7.93;;;6.63;;
67715;SDS011;54508;43.238;25.306;2023-12-20T05:19:56;8.47;;;7.20;;
67715;SDS011;54508;43.238;25.306;2023-12-20T05:22:21;7.60;;;6.53;;
67715;SDS011;54508;43.238;25.306;2023-12-20T05:24:47;7.78;;;6.78;;
67715;SDS011;54508;43.238;25.306;2023-12-20T05:27:12;7.73;;;6.60;;
67715;SDS011;54508;43.238;25.306;2023-12-20T05:29:37;8.07;;;6.57;;
67715;SDS011;54508;43.238;25.306;2023-12-20T05:32:03;7.87;;;7.03;;
67715;SDS011;54508;43.238;25.306;2023-12-20T05:34:30;9.50;;;6.85;;
67715;SDS011;54508;43.238;25.306;2023-12-20T05:36:56;7.88;;;7.00;;
67715;SDS011;54508;43.238;25.306;2023-12-20T05:39:21;8.93;;;7.00;;
67715;SDS011;54508;43.238;25.306;2023-12-20T05:41:47;8.85;;;7.05;;
67715;SDS011;54508;43.238;25.306;2023-12-20T05:44:13;8.93;;;7.40;;
67715;SDS011;54508;43.238;25.306;2023-12-20T05:46:38;7.80;;;7.00;;
67715;SDS011;54508;43.238;25.306;2023-12-20T05:49:05;8.18;;;7.28;;
67715;SDS011;54508;43.238;25.306;2023-12-20T05:51:31;8.67;;;6.93;;
67715;SDS011;54508;43.238;25.306;2023-12-20T05:53:56;8.63;;;7.63;;
67715;SDS011;54508;43.238;25.306;2023-12-20T05:56:21;10.95;;;7.50;;
67715;SDS011;54508;43.238;25.306;2023-12-20T05:58:47;8.90;;;7.70;;
67715;SDS011;54508;43.238;25.306;2023-12-20T06:01:14;9.30;;;7.63;;
67715;SDS011;54508;43.238;25.306;2023-12-20T06:03:42;8.77;;;7.75;;
67715;SDS011;54508;43.238;25.306;2023-12-20T06:06:09;21.23;;;13.48;;
67715;SDS011;54508;43.238;25.306;2023-12-20T06:08:35;18.35;;;12.70;;
67715;SDS011;54508;43.238;25.306;2023-12-20T06:11:01;17.23;;;14.05;;
67715;SDS011;54508;43.238;25.306;2023-12-20T06:13:26;20.40;;;14.45;;
67715;SDS011;54508;43.238;25.306;2023-12-20T06:15:54;18.03;;;14.93;;
67715;SDS011;54508;43.238;25.306;2023-12-20T06:18:20;20.52;;;15.05;;
67715;SDS011;54508;43.238;25.306;2023-12-20T06:20:45;18.33;;;15.80;;
67715;SDS011;54508;43.238;25.306;2023-12-20T06:23:11;19.00;;;15.27;;
67715;SDS011;54508;43.238;25.306;2023-12-20T06:25:36;24.37;;;16.03;;
67715;SDS011;54508;43.238;25.306;2023-12-20T06:28:02;19.65;;;15.18;;
67715;SDS011;54508;43.238;25.306;2023-12-20T06:30:27;20.90;;;14.80;;
67715;SDS011;54508;43.238;25.306;2023-12-20T06:32:53;22.27;;;15.98;;
67715;SDS011;54508;43.238;25.306;2023-12-20T06:35:20;21.00;;;13.53;;
67715;SDS011;54508;43.238;25.306;2023-12-20T06:37:45;18.08;;;13.73;;
67715;SDS011;54508;43.238;25.306;2023-12-20T06:40:11;20.30;;;15.67;;
67715;SDS011;54508;43.238;25.306;2023-12-20T06:42:37;28.98;;;20.55;;
67715;SDS011;54508;43.238;25.306;2023-12-20T06:45:02;26.80;;;21.87;;
67715;SDS011;54508;43.238;25.306;2023-12-20T06:47:28;28.77;;;20.50;;
67715;SDS011;54508;43.238;25.306;2023-12-20T06:49:54;31.37;;;18.37;;
67715;SDS011;54508;43.238;25.306;2023-12-20T06:52:19;24.05;;;18.67;;
67715;SDS011;54508;43.238;25.306;2023-12-20T06:54:45;21.40;;;16.90;;
67715;SDS011;54508;43.238;25.306;2023-12-20T06:57:10;19.20;;;15.23;;
67715;SDS011;54508;43.238;25.306;2023-12-20T06:59:39;20.50;;;15.15;;
67715;SDS011;54508;43.238;25.306;2023-12-20T07:02:05;24.30;;;16.07;;
67715;SDS011;54508;43.238;25.306;2023-12-20T07:04:31;21.38;;;16.58;;
67715;SDS011;54508;43.238;25.306;2023-12-20T07:06:56;26.80;;;17.93;;
67715;SDS011;54508;43.238;25.306;2023-12-20T07:09:25;25.67;;;17.58;;
67715;SDS011;54508;43.238;25.306;2023-12-20T07:11:51;23.92;;;15.60;;
67715;SDS011;54508;43.238;25.306;2023-12-20T07:14:17;28.05;;;15.63;;
67715;SDS011;54508;43.238;25.306;2023-12-20T07:16:43;17.48;;;12.93;;
67715;SDS011;54508;43.238;25.306;2023-12-20T07:19:08;19.30;;;14.80;;
67715;SDS011;54508;43.238;25.306;2023-12-20T07:21:34;16.93;;;12.63;;
67715;SDS011;54508;43.238;25.306;2023-12-20T07:23:59;19.20;;;13.57;;
67715;SDS011;54508;43.238;25.306;2023-12-20T07:26:25;15.40;;;12.80;;
67715;SDS011;54508;43.238;25.306;2023-12-20T07:28:50;26.53;;;16.70;;
67715;SDS011;54508;43.238;25.306;2023-12-20T07:31:16;22.87;;;14.83;;
67715;SDS011;54508;43.238;25.306;2023-12-20T07:33:41;18.50;;;14.63;;
67715;SDS011;54508;43.238;25.306;2023-12-20T07:36:07;20.30;;;14.70;;
67715;SDS011;54508;43.238;25.306;2023-12-20T07:38:33;18.10;;;13.30;;
67715;SDS011;54508;43.238;25.306;2023-12-20T07:40:58;15.20;;;12.55;;
67715;SDS011;54508;43.238;25.306;2023-12-20T07:43:24;16.33;;;12.85;;
67715;SDS011;54508;43.238;25.306;2023-12-20T07:45:50;24.37;;;13.40;;
67715;SDS011;54508;43.238;25.306;2023-12-20T07:48:15;17.03;;;13.93;;
67715;SDS011;54508;43.238;25.306;2023-12-20T07:50:41;20.40;;;13.57;;
67715;SDS011;54508;43.238;25.306;2023-12-20T07:53:07;20.13;;;13.13;;
67715;SDS011;54508;43.238;25.306;2023-12-20T07:55:33;19.88;;;13.13;;
67715;SDS011;54508;43.238;25.306;2023-12-20T07:57:59;22.42;;;13.23;;
67715;SDS011;54508;43.238;25.306;2023-12-20T08:00:25;19.10;;;13.30;;
67715;SDS011;54508;43.238;25.306;2023-12-20T08:02:50;18.23;;;13.25;;
67715;SDS011;54508;43.238;25.306;2023-12-20T08:05:16;20.20;;;13.20;;
67715;SDS011;54508;43.238;25.306;2023-12-20T08:07:41;16.07;;;12.97;;
67715;SDS011;54508;43.238;25.306;2023-12-20T08:10:07;19.23;;;12.35;;
67715;SDS011;54508;43.238;25.306;2023-12-20T08:12:33;21.10;;;12.33;;
67715;SDS011;54508;43.238;25.306;2023-12-20T08:14:59;19.65;;;13.43;;
67715;SDS011;54508;43.238;25.306;2023-12-20T08:17:24;16.23;;;12.37;;
67715;SDS011;54508;43.238;25.306;2023-12-20T08:19:50;20.15;;;14.43;;
67715;SDS011;54508;43.238;25.306;2023-12-20T08:22:16;21.45;;;17.48;;
67715;SDS011;54508;43.238;25.306;2023-12-20T08:24:42;25.05;;;17.73;;
67715;SDS011;54508;43.238;25.306;2023-12-20T08:27:07;25.73;;;18.03;;
67715;SDS011;54508;43.238;25.306;2023-12-20T08:29:34;22.63;;;17.02;;
67715;SDS011;54508;43.238;25.306;2023-12-20T08:32:01;19.10;;;16.23;;
67715;SDS011;54508;43.238;25.306;2023-12-20T08:34:26;23.80;;;16.35;;
67715;SDS011;54508;43.238;25.306;2023-12-20T08:36:52;18.90;;;13.57;;
67715;SDS011;54508;43.238;25.306;2023-12-20T08:39:18;13.98;;;11.48;;
67715;SDS011;54508;43.238;25.306;2023-12-20T08:41:44;12.77;;;9.87;;
67715;SDS011;54508;43.238;25.306;2023-12-20T08:44:10;17.02;;;12.93;;
67715;SDS011;54508;43.238;25.306;2023-12-20T08:46:36;12.97;;;9.33;;
67715;SDS011;54508;43.238;25.306;2023-12-20T08:49:02;13.68;;;9.00;;
67715;SDS011;54508;43.238;25.306;2023-12-20T08:51:27;10.97;;;8.53;;
67715;SDS011;54508;43.238;25.306;2023-12-20T08:53:53;20.52;;;8.70;;
67715;SDS011;54508;43.238;25.306;2023-12-20T08:56:19;10.93;;;7.17;;
67715;SDS011;54508;43.238;25.306;2023-12-20T08:58:45;11.25;;;6.88;;
67715;SDS011;54508;43.238;25.306;2023-12-20T09:01:11;13.32;;;8.45;;
67715;SDS011;54508;43.238;25.306;2023-12-20T09:03:37;12.57;;;8.40;;
67715;SDS011;54508;43.238;25.306;2023-12-20T09:06:03;13.10;;;7.60;;
67715;SDS011;54508;43.238;25.306;2023-12-20T09:08:28;10.10;;;7.97;;
67715;SDS011;54508;43.238;25.306;2023-12-20T09:10:54;10.52;;;6.85;;
67715;SDS011;54508;43.238;25.306;2023-12-20T09:13:19;11.77;;;6.80;;
67715;SDS011;54508;43.238;25.306;2023-12-20T09:15:45;8.50;;;6.22;;
67715;SDS011;54508;43.238;25.306;2023-12-20T09:18:11;8.57;;;5.88;;
67715;SDS011;54508;43.238;25.306;2023-12-20T09:20:37;8.85;;;6.25;;
67715;SDS011;54508;43.238;25.306;2023-12-20T09:23:02;9.37;;;7.30;;
67715;SDS011;54508;43.238;25.306;2023-12-20T09:25:28;12.93;;;7.63;;
67715;SDS011;54508;43.238;25.306;2023-12-20T09:27:55;8.27;;;6.00;;
67715;SDS011;54508;43.238;25.306;2023-12-20T09:30:20;11.95;;;7.00;;
67715;SDS011;54508;43.238;25.306;2023-12-20T09:32:46;9.93;;;7.40;;
67715;SDS011;54508;43.238;25.306;2023-12-20T09:35:11;15.05;;;7.80;;
67715;SDS011;54508;43.238;25.306;2023-12-20T09:37:37;10.27;;;5.33;;
67715;SDS011;54508;43.238;25.306;2023-12-20T09:40:03;11.77;;;6.70;;
67715;SDS011;54508;43.238;25.306;2023-12-20T09:45:03;9.50;;;6.63;;
67715;SDS011;54508;43.238;25.306;2023-12-20T09:47:33;8.55;;;5.95;;
67715;SDS011;54508;43.238;25.306;2023-12-20T09:49:59;9.45;;;5.90;;
67715;SDS011;54508;43.238;25.306;2023-12-20T09:52:25;7.07;;;5.55;;
67715;SDS011;54508;43.238;25.306;2023-12-20T09:54:51;8.30;;;4.77;;
67715;SDS011;54508;43.238;25.306;2023-12-20T09:57:18;11.65;;;5.22;;
67715;SDS011;54508;43.238;25.306;2023-12-20T09:59:43;9.17;;;5.67;;
67715;SDS011;54508;43.238;25.306;2023-12-20T10:02:10;9.77;;;5.90;;
67715;SDS011;54508;43.238;25.306;2023-12-20T10:04:39;12.03;;;5.80;;
67715;SDS011;54508;43.238;25.306;2023-12-20T10:07:10;9.35;;;4.72;;
67715;SDS011;54508;43.238;25.306;2023-12-20T10:09:36;12.10;;;5.10;;
67715;SDS011;54508;43.238;25.306;2023-12-20T10:12:02;10.70;;;5.93;;
67715;SDS011;54508;43.238;25.306;2023-12-20T10:14:27;11.13;;;5.50;;
67715;SDS011;54508;43.238;25.306;2023-12-20T10:16:53;9.57;;;5.32;;
67715;SDS011;54508;43.238;25.306;2023-12-20T10:19:19;8.83;;;5.13;;
67715;SDS011;54508;43.238;25.306;2023-12-20T10:21:45;8.48;;;4.90;;
67715;SDS011;54508;43.238;25.306;2023-12-20T10:24:11;12.07;;;4.90;;
67715;SDS011;54508;43.238;25.306;2023-12-20T10:26:42;7.57;;;4.47;;
67715;SDS011;54508;43.238;25.306;2023-12-20T10:29:07;8.07;;;4.40;;
67715;SDS011;54508;43.238;25.306;2023-12-20T10:31:33;8.55;;;4.20;;
67715;SDS011;54508;43.238;25.306;2023-12-20T10:34:00;7.13;;;3.80;;
67715;SDS011;54508;43.238;25.306;2023-12-20T10:36:28;7.23;;;3.83;;
67715;SDS011;54508;43.238;25.306;2023-12-20T10:38:55;6.72;;;4.03;;
67715;SDS011;54508;43.238;25.306;2023-12-20T10:41:30;5.10;;;4.20;;
67715;SDS011;54508;43.238;25.306;2023-12-20T10:44:00;10.68;;;5.28;;
67715;SDS011;54508;43.238;25.306;2023-12-20T10:46:33;7.80;;;4.88;;
67715;SDS011;54508;43.238;25.306;2023-12-20T10:48:58;6.90;;;4.30;;
67715;SDS011;54508;43.238;25.306;2023-12-20T10:51:24;10.50;;;4.45;;
67715;SDS011;54508;43.238;25.306;2023-12-20T10:53:55;8.50;;;4.53;;
67715;SDS011;54508;43.238;25.306;2023-12-20T10:56:21;9.33;;;4.33;;
67715;SDS011;54508;43.238;25.306;2023-12-20T10:58:48;9.93;;;3.70;;
67715;SDS011;54508;43.238;25.306;2023-12-20T11:01:15;8.45;;;3.97;;
67715;SDS011;54508;43.238;25.306;2023-12-20T11:03:47;6.38;;;3.38;;
67715;SDS011;54508;43.238;25.306;2023-12-20T11:08:49;11.07;;;4.23;;
67715;SDS011;54508;43.238;25.306;2023-12-20T11:13:47;9.23;;;4.83;;
67715;SDS011;54508;43.238;25.306;2023-12-20T11:16:24;5.25;;;3.83;;
67715;SDS011;54508;43.238;25.306;2023-12-20T11:18:50;7.55;;;4.38;;
67715;SDS011;54508;43.238;25.306;2023-12-20T11:21:16;9.32;;;4.35;;
67715;SDS011;54508;43.238;25.306;2023-12-20T11:23:42;13.60;;;4.85;;
67715;SDS011;54508;43.238;25.306;2023-12-20T11:26:07;5.93;;;4.50;;
67715;SDS011;54508;43.238;25.306;2023-12-20T11:28:33;6.95;;;4.38;;
67715;SDS011;54508;43.238;25.306;2023-12-20T11:31:00;9.90;;;5.60;;
67715;SDS011;54508;43.238;25.306;2023-12-20T11:33:29;7.03;;;4.60;;
67715;SDS011;54508;43.238;25.306;2023-12-20T11:35:56;5.10;;;3.85;;
67715;SDS011;54508;43.238;25.306;2023-12-20T11:38:22;7.75;;;3.67;;
67715;SDS011;54508;43.238;25.306;2023-12-20T11:40:48;4.75;;;3.20;;
67715;SDS011;54508;43.238;25.306;2023-12-20T11:43:30;7.85;;;4.72;;
67715;SDS011;54508;43.238;25.306;2023-12-20T11:46:08;7.55;;;4.65;;
67715;SDS011;54508;43.238;25.306;2023-12-20T11:48:35;6.60;;;4.60;;
67715;SDS011;54508;43.238;25.306;2023-12-20T11:51:02;6.80;;;4.50;;
67715;SDS011;54508;43.238;25.306;2023-12-20T11:53:29;6.82;;;4.20;;
67715;SDS011;54508;43.238;25.306;2023-12-20T11:55:56;5.32;;;4.60;;
67715;SDS011;54508;43.238;25.306;2023-12-20T11:58:21;6.57;;;3.80;;
67715;SDS011;54508;43.238;25.306;2023-12-20T12:00:48;5.57;;;4.50;;
67715;SDS011;54508;43.238;25.306;2023-12-20T12:03:14;12.02;;;4.80;;
67715;SDS011;54508;43.238;25.306;2023-12-20T12:05:41;6.85;;;4.55;;
67715;SDS011;54508;43.238;25.306;2023-12-20T12:08:06;8.93;;;4.75;;
67715;SDS011;54508;43.238;25.306;2023-12-20T12:10:32;8.15;;;4.93;;
67715;SDS011;54508;43.238;25.306;2023-12-20T12:12:59;12.05;;;4.82;;
67715;SDS011;54508;43.238;25.306;2023-12-20T12:15:25;6.53;;;4.45;;
67715;SDS011;54508;43.238;25.306;2023-12-20T12:17:54;9.37;;;4.27;;
67715;SDS011;54508;43.238;25.306;2023-12-20T12:20:24;8.52;;;4.50;;
67715;SDS011;54508;43.238;25.306;2023-12-20T12:22:59;7.23;;;4.30;;
67715;SDS011;54508;43.238;25.306;2023-12-20T12:25:26;8.35;;;4.15;;
67715;SDS011;54508;43.238;25.306;2023-12-20T12:27:52;8.32;;;4.70;;
67715;SDS011;54508;43.238;25.306;2023-12-20T12:30:18;9.33;;;4.77;;
67715;SDS011;54508;43.238;25.306;2023-12-20T12:32:44;6.70;;;4.72;;
67715;SDS011;54508;43.238;25.306;2023-12-20T12:35:10;8.38;;;5.07;;
67715;SDS011;54508;43.238;25.306;2023-12-20T12:37:36;10.13;;;5.47;;
67715;SDS011;54508;43.238;25.306;2023-12-20T12:40:04;7.68;;;5.13;;
67715;SDS011;54508;43.238;25.306;2023-12-20T12:42:31;15.70;;;6.35;;
67715;SDS011;54508;43.238;25.306;2023-12-20T12:44:56;12.03;;;5.43;;
67715;SDS011;54508;43.238;25.306;2023-12-20T12:47:22;7.80;;;4.90;;
67715;SDS011;54508;43.238;25.306;2023-12-20T12:49:49;7.18;;;4.90;;
67715;SDS011;54508;43.238;25.306;2023-12-20T12:52:14;8.73;;;4.57;;
67715;SDS011;54508;43.238;25.306;2023-12-20T12:54:40;5.78;;;4.32;;
67715;SDS011;54508;43.238;25.306;2023-12-20T12:57:07;13.63;;;4.47;;
67715;SDS011;54508;43.238;25.306;2023-12-20T12:59:33;4.83;;;4.23;;
67715;SDS011;54508;43.238;25.306;2023-12-20T13:01:58;6.70;;;4.15;;
67715;SDS011;54508;43.238;25.306;2023-12-20T13:04:24;6.77;;;4.10;;
67715;SDS011;54508;43.238;25.306;2023-12-20T13:06:49;6.60;;;3.53;;
67715;SDS011;54508;43.238;25.306;2023-12-20T13:09:15;7.30;;;3.70;;
67715;SDS011;54508;43.238;25.306;2023-12-20T13:11:40;5.35;;;3.17;;
67715;SDS011;54508;43.238;25.306;2023-12-20T13:14:06;4.67;;;3.67;;
67715;SDS011;54508;43.238;25.306;2023-12-20T13:16:32;4.50;;;3.47;;
67715;SDS011;54508;43.238;25.306;2023-12-20T13:18:59;4.13;;;3.10;;
67715;SDS011;54508;43.238;25.306;2023-12-20T13:21:25;6.80;;;3.07;;
67715;SDS011;54508;43.238;25.306;2023-12-20T13:23:50;6.83;;;3.40;;
67715;SDS011;54508;43.238;25.306;2023-12-20T13:26:15;3.67;;;3.10;;
67715;SDS011;54508;43.238;25.306;2023-12-20T13:28:41;4.97;;;3.10;;
67715;SDS011;54508;43.238;25.306;2023-12-20T13:31:07;3.80;;;2.90;;
67715;SDS011;54508;43.238;25.306;2023-12-20T13:33:32;7.30;;;3.07;;
67715;SDS011;54508;43.238;25.306;2023-12-20T13:35:58;3.65;;;2.85;;
67715;SDS011;54508;43.238;25.306;2023-12-20T13:38:24;3.65;;;3.08;;
67715;SDS011;54508;43.238;25.306;2023-12-20T13:40:50;3.90;;;3.00;;
67715;SDS011;54508;43.238;25.306;2023-12-20T13:43:15;3.63;;;3.10;;
67715;SDS011;54508;43.238;25.306;2023-12-20T13:45:45;3.88;;;3.15;;
67715;SDS011;54508;43.238;25.306;2023-12-20T13:48:11;4.55;;;3.00;;
67715;SDS011;54508;43.238;25.306;2023-12-20T13:50:37;6.27;;;3.00;;
67715;SDS011;54508;43.238;25.306;2023-12-20T13:53:02;4.50;;;3.50;;
67715;SDS011;54508;43.238;25.306;2023-12-20T13:55:29;4.97;;;3.60;;
67715;SDS011;54508;43.238;25.306;2023-12-20T13:57:55;5.97;;;3.53;;
67715;SDS011;54508;43.238;25.306;2023-12-20T14:00:21;6.87;;;3.60;;
67715;SDS011;54508;43.238;25.306;2023-12-20T14:02:47;4.68;;;4.15;;
67715;SDS011;54508;43.238;25.306;2023-12-20T14:05:13;5.35;;;4.50;;
67715;SDS011;54508;43.238;25.306;2023-12-20T14:07:42;13.95;;;7.18;;
67715;SDS011;54508;43.238;25.306;2023-12-20T14:10:13;9.63;;;6.82;;
67715;SDS011;54508;43.238;25.306;2023-12-20T14:12:39;11.63;;;8.07;;
67715;SDS011;54508;43.238;25.306;2023-12-20T14:15:05;17.65;;;9.00;;
67715;SDS011;54508;43.238;25.306;2023-12-20T14:17:36;16.65;;;8.02;;
67715;SDS011;54508;43.238;25.306;2023-12-20T14:20:03;13.70;;;7.32;;
67715;SDS011;54508;43.238;25.306;2023-12-20T14:22:31;11.35;;;6.85;;
67715;SDS011;54508;43.238;25.306;2023-12-20T14:24:56;11.98;;;6.63;;
67715;SDS011;54508;43.238;25.306;2023-12-20T14:27:22;10.67;;;6.97;;
67715;SDS011;54508;43.238;25.306;2023-12-20T14:29:49;11.60;;;7.20;;